sensor_id;sensor_type;location;lat;lon;timestamp;temperature;humidity
69938;DHT22;57248;47.320;15.998;2022-09-09T00:00:22;14.25;83.02
69938;DHT22;57248;47.320;15.998;2022-09-09T00:03:11;14.00;83.69
69938;DHT22;57248;47.320;15.998;2022-09-09T00:08:56;13.71;85.28
69938;DHT22;57248;47.320;15.998;2022-09-09T00:11:29;13.80;84.45
69938;DHT22;57248;47.320;15.998;2022-09-09T00:13:58;13.78;84.14
69938;DHT22;57248;47.320;15.998;2022-09-09T00:16:27;13.84;83.48
69938;DHT22;57248;47.320;15.998;2022-09-09T00:19:37;13.78;83.86
69938;DHT22;57248;47.320;15.998;2022-09-09T00:27:04;13.49;84.19
69938;DHT22;57248;47.320;15.998;2022-09-09T00:29:43;13.44;84.83
69938;DHT22;57248;47.320;15.998;2022-09-09T00:32:16;13.44;84.36
69938;DHT22;57248;47.320;15.998;2022-09-09T00:35:04;13.19;85.58
69938;DHT22;57248;47.320;15.998;2022-09-09T00:37:35;13.27;84.59
69938;DHT22;57248;47.320;15.998;2022-09-09T00:40:15;13.16;85.14
69938;DHT22;57248;47.320;15.998;2022-09-09T00:42:43;13.03;85.24
69938;DHT22;57248;47.320;15.998;2022-09-09T00:48:06;13.00;85.19
69938;DHT22;57248;47.320;15.998;2022-09-09T00:58:35;12.82;85.16
69938;DHT22;57248;47.320;15.998;2022-09-09T01:01:11;12.72;86.00
69938;DHT22;57248;47.320;15.998;2022-09-09T01:03:51;12.62;86.29
69938;DHT22;57248;47.320;15.998;2022-09-09T01:06:29;12.52;86.91
69938;DHT22;57248;47.320;15.998;2022-09-09T01:28:02;12.19;86.65
69938;DHT22;57248;47.320;15.998;2022-09-09T01:30:33;12.29;86.72
69938;DHT22;57248;47.320;15.998;2022-09-09T01:32:59;12.26;86.40
69938;DHT22;57248;47.320;15.998;2022-09-09T01:38:14;12.17;85.56
69938;DHT22;57248;47.320;15.998;2022-09-09T01:40:41;12.17;85.78
69938;DHT22;57248;47.320;15.998;2022-09-09T01:43:07;12.12;85.59
69938;DHT22;57248;47.320;15.998;2022-09-09T01:45:33;12.00;86.15
69938;DHT22;57248;47.320;15.998;2022-09-09T01:47:59;12.10;86.47
69938;DHT22;57248;47.320;15.998;2022-09-09T01:50:48;12.03;85.85
69938;DHT22;57248;47.320;15.998;2022-09-09T01:53:15;12.03;86.48
69938;DHT22;57248;47.320;15.998;2022-09-09T01:55:56;11.96;86.76
69938;DHT22;57248;47.320;15.998;2022-09-09T02:03:57;11.94;86.99
69938;DHT22;57248;47.320;15.998;2022-09-09T02:06:35;11.90;87.12
69938;DHT22;57248;47.320;15.998;2022-09-09T02:09:15;11.85;87.30
69938;DHT22;57248;47.320;15.998;2022-09-09T02:11:43;11.87;87.38
69938;DHT22;57248;47.320;15.998;2022-09-09T02:14:22;11.90;87.60
69938;DHT22;57248;47.320;15.998;2022-09-09T02:17:01;11.83;87.19
69938;DHT22;57248;47.320;15.998;2022-09-09T02:19:52;11.86;87.61
69938;DHT22;57248;47.320;15.998;2022-09-09T02:22:28;11.83;87.69
69938;DHT22;57248;47.320;15.998;2022-09-09T02:24:57;11.80;87.85
69938;DHT22;57248;47.320;15.998;2022-09-09T02:27:27;11.79;87.53
69938;DHT22;57248;47.320;15.998;2022-09-09T02:29:54;11.76;87.77
69938;DHT22;57248;47.320;15.998;2022-09-09T02:32:35;11.72;87.70
69938;DHT22;57248;47.320;15.998;2022-09-09T02:35:13;11.73;88.07
69938;DHT22;57248;47.320;15.998;2022-09-09T02:37:42;11.72;87.41
69938;DHT22;57248;47.320;15.998;2022-09-09T02:40:12;11.68;87.69
69938;DHT22;57248;47.320;15.998;2022-09-09T02:42:46;11.72;88.13
69938;DHT22;57248;47.320;15.998;2022-09-09T02:45:15;11.78;88.31
69938;DHT22;57248;47.320;15.998;2022-09-09T02:53:16;11.72;88.91
69938;DHT22;57248;47.320;15.998;2022-09-09T02:58:17;11.69;89.51
69938;DHT22;57248;47.320;15.998;2022-09-09T03:00:51;11.73;88.96
69938;DHT22;57248;47.320;15.998;2022-09-09T03:03:19;11.76;88.71
69938;DHT22;57248;47.320;15.998;2022-09-09T03:05:48;11.69;88.63
69938;DHT22;57248;47.320;15.998;2022-09-09T03:08:13;11.72;89.39
69938;DHT22;57248;47.320;15.998;2022-09-09T03:10:40;11.69;89.60
69938;DHT22;57248;47.320;15.998;2022-09-09T03:13:06;11.66;89.29
69938;DHT22;57248;47.320;15.998;2022-09-09T03:15:37;11.62;89.25
69938;DHT22;57248;47.320;15.998;2022-09-09T03:18:03;11.62;89.18
69938;DHT22;57248;47.320;15.998;2022-09-09T03:20:30;11.46;89.71
69938;DHT22;57248;47.320;15.998;2022-09-09T03:22:58;11.39;89.62
69938;DHT22;57248;47.320;15.998;2022-09-09T03:25:24;11.18;90.98
69938;DHT22;57248;47.320;15.998;2022-09-09T03:27:52;11.11;91.75
69938;DHT22;57248;47.320;15.998;2022-09-09T03:30:22;11.17;91.69
69938;DHT22;57248;47.320;15.998;2022-09-09T03:32:48;11.35;91.07
69938;DHT22;57248;47.320;15.998;2022-09-09T03:35:14;11.38;90.63
69938;DHT22;57248;47.320;15.998;2022-09-09T03:37:40;11.43;90.36
69938;DHT22;57248;47.320;15.998;2022-09-09T03:40:07;11.38;90.17
69938;DHT22;57248;47.320;15.998;2022-09-09T03:42:35;11.35;89.49
69938;DHT22;57248;47.320;15.998;2022-09-09T03:45:07;11.39;90.06
69938;DHT22;57248;47.320;15.998;2022-09-09T03:47:35;11.41;90.48
69938;DHT22;57248;47.320;15.998;2022-09-09T03:50:06;11.43;90.31
69938;DHT22;57248;47.320;15.998;2022-09-09T03:52:35;11.38;90.02
69938;DHT22;57248;47.320;15.998;2022-09-09T03:55:02;11.38;89.96
69938;DHT22;57248;47.320;15.998;2022-09-09T03:57:28;11.28;89.08
69938;DHT22;57248;47.320;15.998;2022-09-09T03:59:55;11.18;89.42
69938;DHT22;57248;47.320;15.998;2022-09-09T04:02:21;11.10;89.90
69938;DHT22;57248;47.320;15.998;2022-09-09T04:04:46;11.06;89.69
69938;DHT22;57248;47.320;15.998;2022-09-09T04:07:13;11.04;90.48
69938;DHT22;57248;47.320;15.998;2022-09-09T04:09:39;11.06;89.06
69938;DHT22;57248;47.320;15.998;2022-09-09T04:12:05;11.04;90.23
69938;DHT22;57248;47.320;15.998;2022-09-09T04:14:32;11.10;90.41
69938;DHT22;57248;47.320;15.998;2022-09-09T04:16:58;11.04;89.57
69938;DHT22;57248;47.320;15.998;2022-09-09T04:19:25;11.08;91.30
69938;DHT22;57248;47.320;15.998;2022-09-09T04:21:51;11.07;90.59
69938;DHT22;57248;47.320;15.998;2022-09-09T04:24:17;11.01;90.97
69938;DHT22;57248;47.320;15.998;2022-09-09T04:26:44;10.99;90.53
69938;DHT22;57248;47.320;15.998;2022-09-09T04:29:10;10.96;89.93
69938;DHT22;57248;47.320;15.998;2022-09-09T04:31:37;11.21;90.62
69938;DHT22;57248;47.320;15.998;2022-09-09T04:34:08;11.01;90.29
69938;DHT22;57248;47.320;15.998;2022-09-09T04:36:34;11.03;90.96
69938;DHT22;57248;47.320;15.998;2022-09-09T04:39:03;11.07;90.87
69938;DHT22;57248;47.320;15.998;2022-09-09T04:41:28;11.14;90.24
69938;DHT22;57248;47.320;15.998;2022-09-09T04:43:55;11.10;90.74
69938;DHT22;57248;47.320;15.998;2022-09-09T04:46:22;11.12;90.43
69938;DHT22;57248;47.320;15.998;2022-09-09T04:48:49;11.14;90.17
69938;DHT22;57248;47.320;15.998;2022-09-09T04:51:15;11.15;89.81
69938;DHT22;57248;47.320;15.998;2022-09-09T04:53:43;11.18;89.44
69938;DHT22;57248;47.320;15.998;2022-09-09T04:56:12;11.21;89.41
69938;DHT22;57248;47.320;15.998;2022-09-09T04:58:42;11.41;89.77
69938;DHT22;57248;47.320;15.998;2022-09-09T05:01:10;11.38;89.93
69938;DHT22;57248;47.320;15.998;2022-09-09T05:03:37;11.39;89.77
69938;DHT22;57248;47.320;15.998;2022-09-09T05:06:09;11.38;90.63
69938;DHT22;57248;47.320;15.998;2022-09-09T05:08:40;11.55;90.17
69938;DHT22;57248;47.320;15.998;2022-09-09T05:11:25;11.71;89.99
69938;DHT22;57248;47.320;15.998;2022-09-09T05:13:54;11.79;90.28
69938;DHT22;57248;47.320;15.998;2022-09-09T05:16:20;12.01;89.57
69938;DHT22;57248;47.320;15.998;2022-09-09T05:18:46;12.21;89.45
69938;DHT22;57248;47.320;15.998;2022-09-09T05:21:14;12.21;89.45
69938;DHT22;57248;47.320;15.998;2022-09-09T05:23:40;12.24;89.76
69938;DHT22;57248;47.320;15.998;2022-09-09T05:26:08;12.40;89.62
69938;DHT22;57248;47.320;15.998;2022-09-09T05:28:34;12.57;88.76
69938;DHT22;57248;47.320;15.998;2022-09-09T05:31:03;12.99;87.66
69938;DHT22;57248;47.320;15.998;2022-09-09T05:33:32;13.26;86.73
69938;DHT22;57248;47.320;15.998;2022-09-09T05:36:04;13.80;88.84
69938;DHT22;57248;47.320;15.998;2022-09-09T05:38:31;13.23;87.30
69938;DHT22;57248;47.320;15.998;2022-09-09T05:40:59;13.27;87.67
69938;DHT22;57248;47.320;15.998;2022-09-09T05:43:26;13.44;87.01
69938;DHT22;57248;47.320;15.998;2022-09-09T05:46:03;13.56;86.52
69938;DHT22;57248;47.320;15.998;2022-09-09T05:48:31;13.80;85.95
69938;DHT22;57248;47.320;15.998;2022-09-09T05:50:58;13.95;86.00
69938;DHT22;57248;47.320;15.998;2022-09-09T05:53:24;14.11;85.93
69938;DHT22;57248;47.320;15.998;2022-09-09T05:56:07;14.25;84.91
69938;DHT22;57248;47.320;15.998;2022-09-09T05:58:36;14.39;85.60
69938;DHT22;57248;47.320;15.998;2022-09-09T06:01:07;14.56;85.10
69938;DHT22;57248;47.320;15.998;2022-09-09T06:03:37;14.81;83.86
69938;DHT22;57248;47.320;15.998;2022-09-09T06:06:05;15.03;82.32
69938;DHT22;57248;47.320;15.998;2022-09-09T06:08:35;15.20;82.26
69938;DHT22;57248;47.320;15.998;2022-09-09T06:11:08;15.41;81.48
69938;DHT22;57248;47.320;15.998;2022-09-09T06:13:35;15.07;82.91
69938;DHT22;57248;47.320;15.998;2022-09-09T06:16:08;15.16;83.19
69938;DHT22;57248;47.320;15.998;2022-09-09T06:18:33;15.35;82.91
69938;DHT22;57248;47.320;15.998;2022-09-09T06:21:01;15.10;83.95
69938;DHT22;57248;47.320;15.998;2022-09-09T06:23:29;14.96;84.02
69938;DHT22;57248;47.320;15.998;2022-09-09T06:28:37;14.91;83.67
69938;DHT22;57248;47.320;15.998;2022-09-09T06:31:08;15.11;83.12
69938;DHT22;57248;47.320;15.998;2022-09-09T06:33:39;15.78;81.80
69938;DHT22;57248;47.320;15.998;2022-09-09T06:36:28;16.69;79.86
69938;DHT22;57248;47.320;15.998;2022-09-09T06:38:54;16.96;77.85
69938;DHT22;57248;47.320;15.998;2022-09-09T06:41:23;17.30;77.82
69938;DHT22;57248;47.320;15.998;2022-09-09T06:43:50;17.73;76.20
69938;DHT22;57248;47.320;15.998;2022-09-09T06:46:18;17.64;77.09
69938;DHT22;57248;47.320;15.998;2022-09-09T06:48:46;17.90;74.90
69938;DHT22;57248;47.320;15.998;2022-09-09T06:51:19;18.24;72.69
69938;DHT22;57248;47.320;15.998;2022-09-09T06:53:47;18.56;70.97
69938;DHT22;57248;47.320;15.998;2022-09-09T06:56:30;19.15;69.33
69938;DHT22;57248;47.320;15.998;2022-09-09T06:58:59;19.58;67.66
69938;DHT22;57248;47.320;15.998;2022-09-09T07:01:31;19.64;64.82
69938;DHT22;57248;47.320;15.998;2022-09-09T07:04:01;19.41;67.21
69938;DHT22;57248;47.320;15.998;2022-09-09T07:06:31;19.76;66.41
69938;DHT22;57248;47.320;15.998;2022-09-09T07:09:03;20.34;63.35
69938;DHT22;57248;47.320;15.998;2022-09-09T07:11:32;20.63;64.79
69938;DHT22;57248;47.320;15.998;2022-09-09T07:14:01;21.13;61.68
69938;DHT22;57248;47.320;15.998;2022-09-09T07:16:28;21.05;61.70
69938;DHT22;57248;47.320;15.998;2022-09-09T07:18:57;21.19;59.65
69938;DHT22;57248;47.320;15.998;2022-09-09T07:21:27;21.32;58.32
69938;DHT22;57248;47.320;15.998;2022-09-09T07:23:54;21.33;60.35
69938;DHT22;57248;47.320;15.998;2022-09-09T07:26:22;21.23;62.80
69938;DHT22;57248;47.320;15.998;2022-09-09T07:28:48;20.61;63.38
69938;DHT22;57248;47.320;15.998;2022-09-09T07:31:19;19.92;64.89
69938;DHT22;57248;47.320;15.998;2022-09-09T07:33:46;19.87;64.53
69938;DHT22;57248;47.320;15.998;2022-09-09T07:36:14;20.82;65.27
69938;DHT22;57248;47.320;15.998;2022-09-09T07:38:41;21.61;61.03
69938;DHT22;57248;47.320;15.998;2022-09-09T07:41:10;22.22;57.55
69938;DHT22;57248;47.320;15.998;2022-09-09T07:43:41;23.10;57.53
69938;DHT22;57248;47.320;15.998;2022-09-09T07:46:09;23.50;52.79
69938;DHT22;57248;47.320;15.998;2022-09-09T07:48:35;23.98;52.72
69938;DHT22;57248;47.320;15.998;2022-09-09T07:51:14;24.39;51.81
69938;DHT22;57248;47.320;15.998;2022-09-09T07:53:42;24.60;50.66
69938;DHT22;57248;47.320;15.998;2022-09-09T07:56:11;25.07;49.78
69938;DHT22;57248;47.320;15.998;2022-09-09T07:58:38;24.87;49.11
69938;DHT22;57248;47.320;15.998;2022-09-09T08:01:11;24.77;49.80
69938;DHT22;57248;47.320;15.998;2022-09-09T08:03:37;24.73;47.74
69938;DHT22;57248;47.320;15.998;2022-09-09T08:06:05;25.52;47.52
69938;DHT22;57248;47.320;15.998;2022-09-09T08:08:33;25.47;47.42
69938;DHT22;57248;47.320;15.998;2022-09-09T08:11:10;27.19;46.65
69938;DHT22;57248;47.320;15.998;2022-09-09T08:13:38;27.22;44.35
69938;DHT22;57248;47.320;15.998;2022-09-09T08:16:06;27.95;43.80
69938;DHT22;57248;47.320;15.998;2022-09-09T08:18:33;31.09;38.99
69938;DHT22;57248;47.320;15.998;2022-09-09T08:21:08;28.28;41.16
69938;DHT22;57248;47.320;15.998;2022-09-09T08:23:34;28.33;40.11
69938;DHT22;57248;47.320;15.998;2022-09-09T08:26:05;28.57;41.40
69938;DHT22;57248;47.320;15.998;2022-09-09T08:28:30;27.80;44.10
69938;DHT22;57248;47.320;15.998;2022-09-09T08:31:05;26.21;44.40
69938;DHT22;57248;47.320;15.998;2022-09-09T08:33:31;26.17;45.40
69938;DHT22;57248;47.320;15.998;2022-09-09T08:35:56;25.89;46.79
69938;DHT22;57248;47.320;15.998;2022-09-09T08:38:22;25.61;48.32
69938;DHT22;57248;47.320;15.998;2022-09-09T08:40:49;26.47;44.06
69938;DHT22;57248;47.320;15.998;2022-09-09T08:43:21;26.21;45.75
69938;DHT22;57248;47.320;15.998;2022-09-09T08:46:01;25.61;46.29
69938;DHT22;57248;47.320;15.998;2022-09-09T08:51:07;25.96;46.39
69938;DHT22;57248;47.320;15.998;2022-09-09T08:53:47;25.34;47.73
69938;DHT22;57248;47.320;15.998;2022-09-09T08:56:17;24.27;49.35
69938;DHT22;57248;47.320;15.998;2022-09-09T08:58:53;23.78;51.30
69938;DHT22;57248;47.320;15.998;2022-09-09T09:05:15;24.10;50.23
69938;DHT22;57248;47.320;15.998;2022-09-09T09:08:02;24.70;49.04
69938;DHT22;57248;47.320;15.998;2022-09-09T09:10:46;24.95;45.98
69938;DHT22;57248;47.320;15.998;2022-09-09T09:13:19;25.49;44.85
69938;DHT22;57248;47.320;15.998;2022-09-09T09:15:54;24.88;45.30
69938;DHT22;57248;47.320;15.998;2022-09-09T09:18:22;26.52;44.08
69938;DHT22;57248;47.320;15.998;2022-09-09T09:20:58;27.13;41.70
69938;DHT22;57248;47.320;15.998;2022-09-09T09:23:35;26.04;42.27
69938;DHT22;57248;47.320;15.998;2022-09-09T09:26:09;25.34;43.80
69938;DHT22;57248;47.320;15.998;2022-09-09T09:28:42;26.13;42.61
69938;DHT22;57248;47.320;15.998;2022-09-09T09:31:14;25.41;43.29
69938;DHT22;57248;47.320;15.998;2022-09-09T09:33:56;25.31;43.61
69938;DHT22;57248;47.320;15.998;2022-09-09T09:36:57;25.03;44.94
69938;DHT22;57248;47.320;15.998;2022-09-09T09:39:27;25.26;45.63
69938;DHT22;57248;47.320;15.998;2022-09-09T09:41:56;24.84;46.08
69938;DHT22;57248;47.320;15.998;2022-09-09T09:46:49;24.66;48.48
69938;DHT22;57248;47.320;15.998;2022-09-09T09:49:15;24.35;48.59
69938;DHT22;57248;47.320;15.998;2022-09-09T09:51:42;23.86;49.48
69938;DHT22;57248;47.320;15.998;2022-09-09T09:54:33;24.06;51.12
69938;DHT22;57248;47.320;15.998;2022-09-09T09:57:11;24.05;50.54
69938;DHT22;57248;47.320;15.998;2022-09-09T09:59:39;24.88;49.33
69938;DHT22;57248;47.320;15.998;2022-09-09T10:02:25;24.08;50.44
69938;DHT22;57248;47.320;15.998;2022-09-09T10:07:33;24.22;51.56
69938;DHT22;57248;47.320;15.998;2022-09-09T10:09:59;25.32;49.79
69938;DHT22;57248;47.320;15.998;2022-09-09T10:12:35;24.22;52.46
69938;DHT22;57248;47.320;15.998;2022-09-09T10:15:21;23.33;53.20
69938;DHT22;57248;47.320;15.998;2022-09-09T10:18:08;23.99;53.15
69938;DHT22;57248;47.320;15.998;2022-09-09T10:20:48;24.86;50.96
69938;DHT22;57248;47.320;15.998;2022-09-09T10:28:49;23.46;53.87
69938;DHT22;57248;47.320;15.998;2022-09-09T10:40:57;26.10;49.37
69938;DHT22;57248;47.320;15.998;2022-09-09T10:42:49;25.53;49.86
69938;DHT22;57248;47.320;15.998;2022-09-09T10:45:21;26.18;49.47
69938;DHT22;57248;47.320;15.998;2022-09-09T10:53:06;26.64;47.30
69938;DHT22;57248;47.320;15.998;2022-09-09T10:55:39;26.95;47.04
69938;DHT22;57248;47.320;15.998;2022-09-09T10:58:05;26.61;47.40
69938;DHT22;57248;47.320;15.998;2022-09-09T11:00:45;26.28;46.87
69938;DHT22;57248;47.320;15.998;2022-09-09T11:03:22;26.44;47.41
69938;DHT22;57248;47.320;15.998;2022-09-09T11:06:06;27.13;45.36
69938;DHT22;57248;47.320;15.998;2022-09-09T11:08:38;26.68;46.39
69938;DHT22;57248;47.320;15.998;2022-09-09T11:13:57;29.01;41.47
69938;DHT22;57248;47.320;15.998;2022-09-09T11:16:30;31.43;35.89
69938;DHT22;57248;47.320;15.998;2022-09-09T11:21:55;30.78;36.03
69938;DHT22;57248;47.320;15.998;2022-09-09T11:24:31;29.07;38.10
69938;DHT22;57248;47.320;15.998;2022-09-09T11:27:00;27.54;41.42
69938;DHT22;57248;47.320;15.998;2022-09-09T11:40:40;34.97;29.67
69938;DHT22;57248;47.320;15.998;2022-09-09T11:43:10;35.27;30.38
69938;DHT22;57248;47.320;15.998;2022-09-09T11:45:41;34.90;29.33
69938;DHT22;57248;47.320;15.998;2022-09-09T11:48:30;35.01;30.21
69938;DHT22;57248;47.320;15.998;2022-09-09T11:51:08;36.60;28.28
69938;DHT22;57248;47.320;15.998;2022-09-09T11:53:36;36.06;29.22
69938;DHT22;57248;47.320;15.998;2022-09-09T12:01:33;32.14;32.74
69938;DHT22;57248;47.320;15.998;2022-09-09T12:04:20;31.60;34.03
69938;DHT22;57248;47.320;15.998;2022-09-09T12:07:00;33.13;33.34
69938;DHT22;57248;47.320;15.998;2022-09-09T12:09:52;32.74;32.64
69938;DHT22;57248;47.320;15.998;2022-09-09T12:12:23;32.29;35.81
69938;DHT22;57248;47.320;15.998;2022-09-09T12:17:50;34.32;33.68
69938;DHT22;57248;47.320;15.998;2022-09-09T12:28:44;32.93;31.94
69938;DHT22;57248;47.320;15.998;2022-09-09T12:31:27;32.48;32.77
69938;DHT22;57248;47.320;15.998;2022-09-09T12:34:09;30.96;34.86
69938;DHT22;57248;47.320;15.998;2022-09-09T12:36:36;31.53;35.72
69938;DHT22;57248;47.320;15.998;2022-09-09T12:39:17;31.28;35.56
69938;DHT22;57248;47.320;15.998;2022-09-09T12:41:53;29.69;38.43
69938;DHT22;57248;47.320;15.998;2022-09-09T12:44:26;29.99;38.60
69938;DHT22;57248;47.320;15.998;2022-09-09T12:46:56;30.75;36.23
69938;DHT22;57248;47.320;15.998;2022-09-09T12:49:38;32.92;31.44
69938;DHT22;57248;47.320;15.998;2022-09-09T12:52:13;31.88;33.52
69938;DHT22;57248;47.320;15.998;2022-09-09T12:54:44;31.37;35.52
69938;DHT22;57248;47.320;15.998;2022-09-09T12:57:12;31.70;34.42
69938;DHT22;57248;47.320;15.998;2022-09-09T12:59:42;31.54;35.21
69938;DHT22;57248;47.320;15.998;2022-09-09T13:02:24;31.94;35.03
69938;DHT22;57248;47.320;15.998;2022-09-09T13:04:50;32.07;33.01
69938;DHT22;57248;47.320;15.998;2022-09-09T13:07:20;30.03;35.17
69938;DHT22;57248;47.320;15.998;2022-09-09T13:09:47;29.52;36.29
69938;DHT22;57248;47.320;15.998;2022-09-09T13:12:18;28.86;36.42
69938;DHT22;57248;47.320;15.998;2022-09-09T13:14:47;29.82;36.79
69938;DHT22;57248;47.320;15.998;2022-09-09T13:17:25;29.79;37.09
69938;DHT22;57248;47.320;15.998;2022-09-09T13:19:52;30.63;36.86
69938;DHT22;57248;47.320;15.998;2022-09-09T13:22:37;30.23;39.71
69938;DHT22;57248;47.320;15.998;2022-09-09T13:27:41;29.76;38.15
69938;DHT22;57248;47.320;15.998;2022-09-09T13:33:20;28.00;39.47
69938;DHT22;57248;47.320;15.998;2022-09-09T13:38:18;26.75;42.66
69938;DHT22;57248;47.320;15.998;2022-09-09T13:41:02;27.71;42.32
69938;DHT22;57248;47.320;15.998;2022-09-09T13:43:43;25.85;46.69
69938;DHT22;57248;47.320;15.998;2022-09-09T13:54:00;26.25;46.33
69938;DHT22;57248;47.320;15.998;2022-09-09T13:56:25;26.65;46.55
69938;DHT22;57248;47.320;15.998;2022-09-09T13:58:51;26.88;43.80
69938;DHT22;57248;47.320;15.998;2022-09-09T14:01:16;26.01;46.00
69938;DHT22;57248;47.320;15.998;2022-09-09T14:03:42;25.77;45.94
69938;DHT22;57248;47.320;15.998;2022-09-09T14:06:10;25.73;45.19
69938;DHT22;57248;47.320;15.998;2022-09-09T14:08:36;25.80;45.41
69938;DHT22;57248;47.320;15.998;2022-09-09T14:11:05;26.33;47.19
69938;DHT22;57248;47.320;15.998;2022-09-09T14:13:32;26.20;46.66
69938;DHT22;57248;47.320;15.998;2022-09-09T14:15:57;25.94;46.55
69938;DHT22;57248;47.320;15.998;2022-09-09T14:18:23;25.90;45.35
69938;DHT22;57248;47.320;15.998;2022-09-09T14:20:51;25.63;46.64
69938;DHT22;57248;47.320;15.998;2022-09-09T14:23:16;25.43;47.51
69938;DHT22;57248;47.320;15.998;2022-09-09T14:25:43;25.47;46.90
69938;DHT22;57248;47.320;15.998;2022-09-09T14:28:10;25.19;47.58
69938;DHT22;57248;47.320;15.998;2022-09-09T14:30:38;24.84;48.49
69938;DHT22;57248;47.320;15.998;2022-09-09T14:33:04;24.41;49.32
69938;DHT22;57248;47.320;15.998;2022-09-09T14:35:29;24.19;49.89
69938;DHT22;57248;47.320;15.998;2022-09-09T14:37:55;24.20;49.14
69938;DHT22;57248;47.320;15.998;2022-09-09T14:40:21;24.12;50.60
69938;DHT22;57248;47.320;15.998;2022-09-09T14:42:47;24.18;50.20
69938;DHT22;57248;47.320;15.998;2022-09-09T14:45:12;23.84;49.57
69938;DHT22;57248;47.320;15.998;2022-09-09T14:47:38;23.85;51.04
69938;DHT22;57248;47.320;15.998;2022-09-09T14:50:04;23.68;50.34
69938;DHT22;57248;47.320;15.998;2022-09-09T14:52:33;23.53;51.21
69938;DHT22;57248;47.320;15.998;2022-09-09T14:54:59;23.61;51.64
69938;DHT22;57248;47.320;15.998;2022-09-09T14:57:24;23.86;50.59
69938;DHT22;57248;47.320;15.998;2022-09-09T14:59:49;23.53;50.03
69938;DHT22;57248;47.320;15.998;2022-09-09T15:02:16;23.82;52.51
69938;DHT22;57248;47.320;15.998;2022-09-09T15:04:41;24.29;51.08
69938;DHT22;57248;47.320;15.998;2022-09-09T15:07:07;24.09;51.59
69938;DHT22;57248;47.320;15.998;2022-09-09T15:09:32;24.26;51.41
69938;DHT22;57248;47.320;15.998;2022-09-09T15:11:58;24.02;53.45
69938;DHT22;57248;47.320;15.998;2022-09-09T15:14:23;23.82;52.50
69938;DHT22;57248;47.320;15.998;2022-09-09T15:16:49;24.06;53.50
69938;DHT22;57248;47.320;15.998;2022-09-09T15:19:14;23.55;53.08
69938;DHT22;57248;47.320;15.998;2022-09-09T15:21:40;23.23;54.11
69938;DHT22;57248;47.320;15.998;2022-09-09T15:24:06;23.38;53.43
69938;DHT22;57248;47.320;15.998;2022-09-09T15:26:34;23.53;53.33
69938;DHT22;57248;47.320;15.998;2022-09-09T15:29:02;23.33;53.01
69938;DHT22;57248;47.320;15.998;2022-09-09T15:31:29;23.44;53.29
69938;DHT22;57248;47.320;15.998;2022-09-09T15:33:57;23.47;53.39
69938;DHT22;57248;47.320;15.998;2022-09-09T15:36:28;23.06;54.57
69938;DHT22;57248;47.320;15.998;2022-09-09T15:38:54;23.03;55.13
69938;DHT22;57248;47.320;15.998;2022-09-09T15:41:21;22.76;54.89
69938;DHT22;57248;47.320;15.998;2022-09-09T15:43:49;22.77;55.12
69938;DHT22;57248;47.320;15.998;2022-09-09T15:46:22;22.72;55.20
69938;DHT22;57248;47.320;15.998;2022-09-09T15:51:30;22.66;57.41
69938;DHT22;57248;47.320;15.998;2022-09-09T15:53:59;22.10;59.26
69938;DHT22;57248;47.320;15.998;2022-09-09T15:56:28;22.08;59.85
69938;DHT22;57248;47.320;15.998;2022-09-09T15:58:56;22.25;59.60
69938;DHT22;57248;47.320;15.998;2022-09-09T16:01:22;22.22;59.11
69938;DHT22;57248;47.320;15.998;2022-09-09T16:03:48;22.17;59.63
69938;DHT22;57248;47.320;15.998;2022-09-09T16:06:17;21.76;61.32
69938;DHT22;57248;47.320;15.998;2022-09-09T16:08:45;21.70;61.25
69938;DHT22;57248;47.320;15.998;2022-09-09T16:11:13;22.02;62.70
69938;DHT22;57248;47.320;15.998;2022-09-09T16:13:43;22.01;64.82
69938;DHT22;57248;47.320;15.998;2022-09-09T16:16:10;21.98;66.34
69938;DHT22;57248;47.320;15.998;2022-09-09T16:18:42;21.83;68.62
69938;DHT22;57248;47.320;15.998;2022-09-09T16:21:14;21.47;68.92
69938;DHT22;57248;47.320;15.998;2022-09-09T16:23:40;21.40;69.67
69938;DHT22;57248;47.320;15.998;2022-09-09T16:26:09;21.33;70.21
69938;DHT22;57248;47.320;15.998;2022-09-09T16:28:35;21.18;70.82
69938;DHT22;57248;47.320;15.998;2022-09-09T16:31:10;21.26;70.13
69938;DHT22;57248;47.320;15.998;2022-09-09T16:33:39;20.99;73.23
69938;DHT22;57248;47.320;15.998;2022-09-09T16:36:11;21.08;72.21
69938;DHT22;57248;47.320;15.998;2022-09-09T16:38:37;20.87;73.81
69938;DHT22;57248;47.320;15.998;2022-09-09T16:41:05;20.50;74.86
69938;DHT22;57248;47.320;15.998;2022-09-09T16:43:32;20.63;73.74
69938;DHT22;57248;47.320;15.998;2022-09-09T16:45:58;20.32;77.63
69938;DHT22;57248;47.320;15.998;2022-09-09T16:48:26;20.30;77.76
69938;DHT22;57248;47.320;15.998;2022-09-09T16:50:52;20.14;78.12
69938;DHT22;57248;47.320;15.998;2022-09-09T16:53:18;20.03;78.50
69938;DHT22;57248;47.320;15.998;2022-09-09T16:55:44;19.99;78.55
69938;DHT22;57248;47.320;15.998;2022-09-09T16:58:10;19.75;76.01
69938;DHT22;57248;47.320;15.998;2022-09-09T17:00:37;19.65;75.68
69938;DHT22;57248;47.320;15.998;2022-09-09T17:03:03;19.76;77.20
69938;DHT22;57248;47.320;15.998;2022-09-09T17:05:29;19.82;78.01
69938;DHT22;57248;47.320;15.998;2022-09-09T17:07:55;19.51;78.23
69938;DHT22;57248;47.320;15.998;2022-09-09T17:10:23;19.45;76.62
69938;DHT22;57248;47.320;15.998;2022-09-09T17:12:49;19.50;76.46
69938;DHT22;57248;47.320;15.998;2022-09-09T17:15:15;19.65;75.32
69938;DHT22;57248;47.320;15.998;2022-09-09T17:17:41;19.61;76.84
69938;DHT22;57248;47.320;15.998;2022-09-09T17:20:09;19.50;77.21
69938;DHT22;57248;47.320;15.998;2022-09-09T17:22:34;19.41;76.96
69938;DHT22;57248;47.320;15.998;2022-09-09T17:25:00;19.34;77.13
69938;DHT22;57248;47.320;15.998;2022-09-09T17:27:25;19.31;76.68
69938;DHT22;57248;47.320;15.998;2022-09-09T17:29:51;19.24;77.46
69938;DHT22;57248;47.320;15.998;2022-09-09T17:32:17;19.21;76.98
69938;DHT22;57248;47.320;15.998;2022-09-09T17:34:43;19.21;77.55
69938;DHT22;57248;47.320;15.998;2022-09-09T17:37:09;19.11;78.96
69938;DHT22;57248;47.320;15.998;2022-09-09T17:39:35;19.13;79.17
69938;DHT22;57248;47.320;15.998;2022-09-09T17:42:01;18.96;80.51
69938;DHT22;57248;47.320;15.998;2022-09-09T17:44:26;18.90;80.86
69938;DHT22;57248;47.320;15.998;2022-09-09T17:46:54;18.80;80.90
69938;DHT22;57248;47.320;15.998;2022-09-09T17:49:21;18.65;80.48
69938;DHT22;57248;47.320;15.998;2022-09-09T17:51:46;18.73;80.11
69938;DHT22;57248;47.320;15.998;2022-09-09T17:54:18;18.83;79.93